createdAt,value
2023-02-03T00:00:19.723Z,2.92
2023-02-03T00:02:47.005Z,2.53
2023-02-03T00:05:14.651Z,2.45
2023-02-03T00:07:44.625Z,3.63
2023-02-03T00:15:37.972Z,3.35
2023-02-03T00:18:11.181Z,3.92
2023-02-03T00:20:38.934Z,3.95
2023-02-03T00:23:08.841Z,3.33
2023-02-03T00:28:19.218Z,4.05
2023-02-03T00:30:46.957Z,4.53
2023-02-03T00:33:15.505Z,4.55
2023-02-03T00:35:42.703Z,4.53
2023-02-03T00:38:09.995Z,3.75
2023-02-03T00:40:37.320Z,4.45
2023-02-03T00:43:04.754Z,3.80
2023-02-03T00:45:32.473Z,3.20
2023-02-03T00:47:59.999Z,3.78
2023-02-03T00:50:27.631Z,4.35
2023-02-03T00:52:55.100Z,4.03
2023-02-03T00:55:22.482Z,3.78
2023-02-03T00:57:52.156Z,4.00
2023-02-03T01:00:20.350Z,4.53
2023-02-03T01:02:48.137Z,3.38
2023-02-03T01:05:15.298Z,3.97
2023-02-03T01:07:42.576Z,4.10
2023-02-03T01:10:10.725Z,3.13
2023-02-03T01:12:37.862Z,3.80
2023-02-03T01:15:05.611Z,3.78
2023-02-03T01:17:33.018Z,2.35
2023-02-03T01:20:00.123Z,2.70
2023-02-03T01:22:30.980Z,2.67
2023-02-03T01:24:59.309Z,2.30
2023-02-03T01:27:26.528Z,3.00
2023-02-03T01:29:55.459Z,3.35
2023-02-03T01:32:22.696Z,2.70
2023-02-03T01:34:49.889Z,3.13
2023-02-03T01:37:18.108Z,2.25
2023-02-03T01:39:46.360Z,4.32
2023-02-03T01:42:15.066Z,3.10
2023-02-03T01:44:52.505Z,2.65
2023-02-03T01:47:25.382Z,4.35
2023-02-03T01:50:15.577Z,2.88
2023-02-03T01:52:49.371Z,3.05
2023-02-03T01:55:23.786Z,2.83
2023-02-03T01:57:56.372Z,3.05
2023-02-03T02:00:24.305Z,2.70
2023-02-03T02:02:55.056Z,3.47
2023-02-03T02:05:35.684Z,4.68
2023-02-03T02:08:04.199Z,4.22
2023-02-03T02:10:34.024Z,2.92
2023-02-03T02:13:03.414Z,4.25
2023-02-03T02:15:53.048Z,3.78
2023-02-03T02:19:02.288Z,4.45
2023-02-03T02:21:50.226Z,3.40
2023-02-03T02:24:36.774Z,4.35
2023-02-03T02:27:11.091Z,5.28
2023-02-03T02:30:16.221Z,3.80
2023-02-03T02:32:58.515Z,3.50
2023-02-03T02:35:40.919Z,4.00
2023-02-03T02:38:31.935Z,3.55
2023-02-03T02:41:19.597Z,3.85
2023-02-03T02:43:58.513Z,3.33
2023-02-03T02:46:41.072Z,3.30
2023-02-03T02:49:16.791Z,3.35
2023-02-03T02:51:48.837Z,3.13
2023-02-03T02:54:21.424Z,3.55
2023-02-03T02:56:59.740Z,4.53
2023-02-03T02:59:28.113Z,3.13
2023-02-03T03:01:55.397Z,3.20
2023-02-03T03:04:27.703Z,3.95
2023-02-03T03:06:59.524Z,2.75
2023-02-03T03:09:36.470Z,2.92
2023-02-03T03:12:22.834Z,3.35
2023-02-03T03:14:57.990Z,2.63
2023-02-03T03:17:30.262Z,2.97
2023-02-03T03:20:06.426Z,2.60
2023-02-03T03:22:39.956Z,2.90
2023-02-03T03:25:15.153Z,1.88
2023-02-03T03:27:49.930Z,2.95
2023-02-03T03:30:37.617Z,1.88
2023-02-03T03:33:07.586Z,2.22
2023-02-03T03:35:45.879Z,1.88
2023-02-03T03:38:35.728Z,2.40
2023-02-03T03:41:08.858Z,2.20
2023-02-03T03:43:40.412Z,1.27
2023-02-03T03:46:14.744Z,2.65
2023-02-03T03:48:59.188Z,2.40
2023-02-03T03:51:46.372Z,2.22
2023-02-03T03:54:17.369Z,1.90
2023-02-03T03:57:00.138Z,1.33
2023-02-03T03:59:31.511Z,1.75
2023-02-03T04:02:05.089Z,1.70
2023-02-03T04:04:35.651Z,1.35
2023-02-03T04:07:03.108Z,2.28
2023-02-03T04:09:30.308Z,1.65
2023-02-03T04:12:03.326Z,1.70
2023-02-03T04:14:35.988Z,1.70
2023-02-03T04:17:03.333Z,1.60
2023-02-03T04:19:30.687Z,1.50
2023-02-03T04:21:57.982Z,2.00
2023-02-03T04:24:25.296Z,1.65
2023-02-03T04:26:52.628Z,1.95
2023-02-03T04:29:19.695Z,1.60
2023-02-03T04:31:47.088Z,1.95
2023-02-03T04:34:14.189Z,1.65
2023-02-03T04:36:41.407Z,1.70
2023-02-03T04:39:08.727Z,1.15
2023-02-03T04:41:36.244Z,2.28
2023-02-03T04:44:03.587Z,2.20
2023-02-03T04:46:30.915Z,1.73
2023-02-03T04:48:58.138Z,1.88
2023-02-03T04:51:25.281Z,1.80
2023-02-03T04:53:52.637Z,1.63
2023-02-03T04:56:19.695Z,1.48
2023-02-03T04:58:46.962Z,1.33
2023-02-03T05:01:14.167Z,1.48
2023-02-03T05:03:41.454Z,1.77
2023-02-03T05:06:08.600Z,2.22
2023-02-03T05:08:35.746Z,2.15
2023-02-03T05:11:04.256Z,2.20
2023-02-03T05:13:32.813Z,2.15
2023-02-03T05:16:00.091Z,1.52
2023-02-03T05:18:27.224Z,2.00
2023-02-03T05:20:57.305Z,1.05
2023-02-03T05:23:24.695Z,1.75
2023-02-03T05:25:51.979Z,2.15
2023-02-03T05:28:19.549Z,1.58
2023-02-03T05:30:47.532Z,1.35
2023-02-03T05:33:15.029Z,1.60
2023-02-03T05:35:42.395Z,1.63
2023-02-03T05:38:09.757Z,1.70
2023-02-03T05:40:55.478Z,1.70
2023-02-03T05:43:22.609Z,3.17
2023-02-03T05:45:49.744Z,1.40
2023-02-03T05:48:16.906Z,2.03
2023-02-03T05:50:44.233Z,1.40
2023-02-03T05:53:11.937Z,1.70
2023-02-03T05:55:39.524Z,1.77
2023-02-03T05:58:14.260Z,1.50
2023-02-03T06:00:41.815Z,1.33
2023-02-03T06:03:08.960Z,2.53
2023-02-03T06:05:40.946Z,1.40
2023-02-03T06:08:09.033Z,1.23
2023-02-03T06:10:36.686Z,1.85
2023-02-03T06:13:15.915Z,1.40
2023-02-03T06:15:45.275Z,1.75
2023-02-03T06:18:12.708Z,1.17
2023-02-03T06:20:39.899Z,1.90
2023-02-03T06:23:07.210Z,1.50
2023-02-03T06:25:34.527Z,1.63
2023-02-03T06:28:01.932Z,1.60
2023-02-03T06:30:29.675Z,1.95
2023-02-03T06:32:57.224Z,1.27
2023-02-03T06:35:24.381Z,1.77
2023-02-03T06:37:51.709Z,1.58
2023-02-03T06:40:19.185Z,1.58
2023-02-03T06:42:50.925Z,1.60
2023-02-03T06:45:18.857Z,1.70
2023-02-03T06:47:46.359Z,1.20
2023-02-03T06:50:15.814Z,1.70
2023-02-03T06:52:43.231Z,2.10
2023-02-03T06:55:10.950Z,1.50
2023-02-03T06:57:47.574Z,1.88
2023-02-03T07:00:19.502Z,1.40
2023-02-03T07:02:53.357Z,1.42
2023-02-03T07:05:21.514Z,1.00
2023-02-03T07:07:49.241Z,1.42
2023-02-03T07:10:17.098Z,1.00
2023-02-03T07:12:46.442Z,0.95
2023-02-03T07:15:15.060Z,1.45
2023-02-03T07:17:42.337Z,1.02
2023-02-03T07:20:10.054Z,0.68
2023-02-03T07:22:38.801Z,1.30
2023-02-03T07:25:06.435Z,1.13
2023-02-03T07:27:33.731Z,1.70
2023-02-03T07:30:01.282Z,1.30
2023-02-03T07:32:28.947Z,1.00
2023-02-03T07:34:56.359Z,0.73
2023-02-03T07:37:23.670Z,0.90
2023-02-03T07:39:50.901Z,0.70
2023-02-03T07:42:18.220Z,0.77
2023-02-03T07:44:47.285Z,0.68
2023-02-03T07:47:14.702Z,0.90
2023-02-03T07:49:43.236Z,0.90
2023-02-03T07:52:10.455Z,0.70
2023-02-03T07:54:37.567Z,0.60
2023-02-03T07:57:04.887Z,0.60
2023-02-03T07:59:32.049Z,0.90
2023-02-03T08:02:00.707Z,0.95
2023-02-03T08:04:30.723Z,0.75
2023-02-03T08:06:58.003Z,1.05
2023-02-03T08:09:25.230Z,1.08
2023-02-03T08:11:53.112Z,1.20
2023-02-03T08:14:20.290Z,1.50
2023-02-03T08:16:47.666Z,1.75
2023-02-03T08:19:14.991Z,1.75
2023-02-03T08:21:42.360Z,1.23
2023-02-03T08:24:09.872Z,1.40
2023-02-03T08:26:37.810Z,1.30
2023-02-03T08:29:05.258Z,1.67
2023-02-03T08:31:33.553Z,1.00
2023-02-03T08:34:01.103Z,1.10
2023-02-03T08:36:28.456Z,1.30
2023-02-03T08:38:55.691Z,1.48
2023-02-03T08:41:23.064Z,1.00
2023-02-03T08:43:50.929Z,0.80
2023-02-03T08:46:19.461Z,0.98
2023-02-03T08:48:47.733Z,1.05
2023-02-03T08:51:17.640Z,0.60
2023-02-03T08:53:45.589Z,0.77
2023-02-03T08:56:13.450Z,1.05
2023-02-03T08:58:41.313Z,0.90
2023-02-03T09:01:12.599Z,0.75
2023-02-03T09:03:40.263Z,0.90
2023-02-03T09:06:09.413Z,0.70
2023-02-03T09:08:36.639Z,0.77
2023-02-03T09:11:09.320Z,1.00
2023-02-03T09:13:36.921Z,1.38
2023-02-03T09:16:04.606Z,1.15
2023-02-03T09:18:31.695Z,1.45
2023-02-03T09:21:03.561Z,0.80
2023-02-03T09:23:31.111Z,1.10
2023-02-03T09:26:10.246Z,1.08
2023-02-03T09:28:38.010Z,1.17
2023-02-03T09:31:18.133Z,0.80
2023-02-03T09:33:46.056Z,0.70
2023-02-03T09:36:14.355Z,1.30
2023-02-03T09:38:41.775Z,1.00
2023-02-03T09:41:15.066Z,0.82
2023-02-03T09:43:47.743Z,0.60
2023-02-03T09:50:22.790Z,1.02
2023-02-03T09:56:00.172Z,1.75
2023-02-03T09:58:33.399Z,1.42
2023-02-03T10:01:06.094Z,1.00
2023-02-03T10:03:39.404Z,1.30
2023-02-03T10:06:45.620Z,0.80
2023-02-03T10:09:27.738Z,1.88
2023-02-03T10:12:27.333Z,1.40
2023-02-03T10:15:20.084Z,1.38
2023-02-03T10:18:07.112Z,0.85
2023-02-03T10:20:41.459Z,0.60
2023-02-03T10:23:22.605Z,1.30
2023-02-03T10:25:57.381Z,1.60
2023-02-03T10:28:30.337Z,0.85
2023-02-03T10:31:05.934Z,0.77
2023-02-03T10:33:34.744Z,0.90
2023-02-03T10:36:05.079Z,1.23
2023-02-03T10:38:50.774Z,1.00
2023-02-03T10:41:20.064Z,1.08
2023-02-03T10:43:52.867Z,1.17
2023-02-03T10:46:32.511Z,1.10
2023-02-03T10:49:04.949Z,1.05
2023-02-03T10:51:52.601Z,1.40
2023-02-03T10:54:35.630Z,1.17
2023-02-03T10:57:06.860Z,1.83
2023-02-03T10:59:36.987Z,1.27
2023-02-03T11:02:10.248Z,0.85
2023-02-03T11:04:37.955Z,0.80
2023-02-03T11:07:08.343Z,0.82
2023-02-03T11:09:42.591Z,1.33
2023-02-03T11:12:18.862Z,1.73
2023-02-03T11:14:48.704Z,0.98
2023-02-03T11:17:20.417Z,2.03
2023-02-03T11:19:49.582Z,1.30
2023-02-03T11:22:38.093Z,1.27
2023-02-03T11:25:22.306Z,1.60
2023-02-03T11:27:50.024Z,1.00
2023-02-03T11:30:24.530Z,1.30
2023-02-03T11:32:53.088Z,1.42
2023-02-03T11:35:23.945Z,1.55
2023-02-03T11:37:57.048Z,0.90
2023-02-03T11:40:27.688Z,1.60
2023-02-03T11:42:58.124Z,1.05
2023-02-03T11:45:38.002Z,1.50
2023-02-03T11:48:16.443Z,1.70
2023-02-03T11:50:46.407Z,2.38
2023-02-03T11:53:22.296Z,1.85
2023-02-03T11:56:18.688Z,1.48
2023-02-03T11:59:12.643Z,1.40
2023-02-03T12:02:21.867Z,1.17
2023-02-03T12:05:40.226Z,1.77
2023-02-03T12:08:10.365Z,1.55
2023-02-03T12:11:11.381Z,1.65
2023-02-03T12:13:53.789Z,1.48
2023-02-03T12:16:42.432Z,2.08
2023-02-03T12:19:36.407Z,1.70
2023-02-03T12:22:17.927Z,1.08
2023-02-03T12:24:51.560Z,1.90
2023-02-03T12:27:37.512Z,1.10
2023-02-03T12:30:14.482Z,1.10
2023-02-03T12:32:49.786Z,1.27
2023-02-03T12:35:38.347Z,1.10
2023-02-03T12:38:26.952Z,1.40
2023-02-03T12:41:01.183Z,1.92
2023-02-03T12:43:49.896Z,1.42
2023-02-03T12:46:19.929Z,1.35
2023-02-03T12:49:05.482Z,1.83
2023-02-03T12:51:39.552Z,1.15
2023-02-03T12:54:46.052Z,1.92
2023-02-03T12:57:20.179Z,1.70
2023-02-03T13:00:02.887Z,1.88
2023-02-03T13:02:37.871Z,1.55
2023-02-03T13:05:47.681Z,1.13
2023-02-03T13:08:33.381Z,1.52
2023-02-03T13:11:27.951Z,1.00
2023-02-03T13:13:59.015Z,0.70
2023-02-03T13:16:37.966Z,0.80
2023-02-03T13:19:15.093Z,0.98
2023-02-03T13:21:42.594Z,1.05
2023-02-03T13:24:11.880Z,1.02
2023-02-03T13:26:49.577Z,0.95
2023-02-03T13:29:32.248Z,0.63
2023-02-03T13:32:08.454Z,0.70
2023-02-03T13:35:05.092Z,0.70
2023-02-03T13:37:41.466Z,1.20
2023-02-03T13:40:46.461Z,0.85
2023-02-03T13:43:36.818Z,0.80
2023-02-03T13:46:09.180Z,0.90
2023-02-03T13:48:37.354Z,0.80
2023-02-03T13:51:20.926Z,0.80
2023-02-03T13:53:52.677Z,0.90
2023-02-03T13:56:31.824Z,1.00
2023-02-03T13:59:06.633Z,1.00
2023-02-03T14:01:37.176Z,1.25
2023-02-03T14:04:29.448Z,0.70
2023-02-03T14:07:00.270Z,0.70
2023-02-03T14:09:36.161Z,0.60
2023-02-03T14:12:18.566Z,1.10
2023-02-03T14:14:52.723Z,0.77
2023-02-03T14:17:35.339Z,0.70
2023-02-03T14:20:05.619Z,0.80
2023-02-03T14:22:32.975Z,0.75
2023-02-03T14:25:06.803Z,0.80
2023-02-03T14:27:35.693Z,0.60
2023-02-03T14:30:19.551Z,0.80
2023-02-03T14:32:58.926Z,0.65
2023-02-03T14:35:32.194Z,0.70
2023-02-03T14:38:03.093Z,0.77
2023-02-03T14:40:45.643Z,0.95
2023-02-03T14:43:43.772Z,0.70
2023-02-03T14:46:49.166Z,0.90
2023-02-03T14:49:19.179Z,1.00
2023-02-03T14:51:49.813Z,0.80
2023-02-03T14:54:46.925Z,0.70
2023-02-03T14:57:37.463Z,1.00
2023-02-03T15:00:28.789Z,0.88
2023-02-03T15:03:25.535Z,2.85
2023-02-03T15:06:04.178Z,3.38
2023-02-03T15:08:46.844Z,2.00
2023-02-03T15:11:28.094Z,1.58
2023-02-03T15:13:57.792Z,1.23
2023-02-03T15:16:28.805Z,1.00
2023-02-03T15:19:00.467Z,1.63
2023-02-03T15:21:27.788Z,1.23
2023-02-03T15:23:56.228Z,1.15
2023-02-03T15:26:26.391Z,1.15
2023-02-03T15:29:02.666Z,0.90
2023-02-03T15:31:50.075Z,1.13
2023-02-03T15:34:25.967Z,1.05
2023-02-03T15:36:58.496Z,0.80
2023-02-03T15:39:48.585Z,1.30
2023-02-03T15:43:06.031Z,1.20
2023-02-03T15:46:41.182Z,1.50
2023-02-03T15:50:24.570Z,0.98
2023-02-03T15:52:53.754Z,1.17
2023-02-03T15:55:37.329Z,0.95
2023-02-03T15:58:05.617Z,1.48
2023-02-03T16:00:39.053Z,1.27
2023-02-03T16:10:01.672Z,2.35
2023-02-03T16:12:31.519Z,1.77
2023-02-03T16:15:00.681Z,2.60
2023-02-03T16:17:32.527Z,1.80
2023-02-03T16:20:12.373Z,2.53
2023-02-03T16:22:45.281Z,1.73
2023-02-03T16:25:27.745Z,1.83
2023-02-03T16:28:20.894Z,1.83
2023-02-03T16:31:16.292Z,1.80
2023-02-03T16:34:06.740Z,1.95
2023-02-03T16:36:53.680Z,2.80
2023-02-03T16:39:39.477Z,3.10
2023-02-03T16:42:36.750Z,3.20
2023-02-03T16:45:29.699Z,4.22
2023-02-03T16:48:15.334Z,3.25
2023-02-03T16:50:58.313Z,2.65
2023-02-03T16:53:31.406Z,2.80
2023-02-03T16:56:02.480Z,3.00
2023-02-03T16:58:29.743Z,2.55
2023-02-03T17:00:59.736Z,2.13
2023-02-03T17:03:28.514Z,2.45
2023-02-03T17:05:57.180Z,2.20
2023-02-03T17:08:27.011Z,4.00
2023-02-03T17:10:54.455Z,4.15
2023-02-03T17:13:24.522Z,3.67
2023-02-03T17:15:55.478Z,3.22
2023-02-03T17:18:23.080Z,4.43
2023-02-03T17:20:50.480Z,5.00
2023-02-03T17:23:17.777Z,4.95
2023-02-03T17:25:47.335Z,6.68
2023-02-03T17:28:14.826Z,3.60
2023-02-03T17:30:42.335Z,4.78
2023-02-03T17:33:12.404Z,5.32
2023-02-03T17:35:43.607Z,4.95
2023-02-03T17:38:12.143Z,3.95
2023-02-03T17:54:28.114Z,3.22
2023-02-03T17:56:55.308Z,2.65
2023-02-03T17:59:22.628Z,2.40
2023-02-03T18:01:50.128Z,2.95
2023-02-03T18:04:17.386Z,3.42
2023-02-03T18:06:46.441Z,2.90
2023-02-03T18:09:16.744Z,2.45
2023-02-03T18:11:45.902Z,2.90
2023-02-03T18:14:14.513Z,2.28
2023-02-03T18:16:43.068Z,2.35
2023-02-03T18:19:15.124Z,2.30
2023-02-03T18:21:43.395Z,2.10
2023-02-03T18:24:13.211Z,2.72
2023-02-03T18:26:52.254Z,3.63
2023-02-03T18:29:19.667Z,3.05
2023-02-03T18:31:47.651Z,3.17
2023-02-03T18:34:16.445Z,3.80
2023-02-03T18:36:44.049Z,4.22
2023-02-03T18:39:12.696Z,4.13
2023-02-03T18:41:40.243Z,3.05
2023-02-03T18:44:07.507Z,6.20
2023-02-03T18:46:34.882Z,4.03
2023-02-03T18:49:02.236Z,4.68
2023-02-03T18:51:29.452Z,4.47
2023-02-03T18:53:58.749Z,3.17
2023-02-03T18:56:28.397Z,3.17
2023-02-03T18:58:55.627Z,3.22
2023-02-03T19:01:28.722Z,2.58
2023-02-03T19:03:58.379Z,3.35
2023-02-03T19:06:26.754Z,2.15
2023-02-03T19:08:54.138Z,1.55
2023-02-03T19:11:21.309Z,1.67
2023-02-03T19:13:48.913Z,2.40
2023-02-03T19:16:17.635Z,2.03
2023-02-03T19:18:45.648Z,2.13
2023-02-03T19:21:13.797Z,2.65
2023-02-03T19:23:41.901Z,2.50
2023-02-03T19:26:10.209Z,2.20
2023-02-03T19:28:38.311Z,1.80
2023-02-03T19:31:15.313Z,2.85
2023-02-03T19:33:43.300Z,2.53
2023-02-03T19:36:11.793Z,2.97
2023-02-03T19:38:39.429Z,2.88
2023-02-03T19:41:07.744Z,3.15
2023-02-03T19:43:35.194Z,2.30
2023-02-03T19:46:02.639Z,2.25
2023-02-03T19:48:30.032Z,3.45
2023-02-03T19:50:57.398Z,2.70
2023-02-03T19:53:24.571Z,2.95
2023-02-03T19:55:51.947Z,3.05
2023-02-03T19:58:19.116Z,3.30
2023-02-03T20:00:46.343Z,4.03
2023-02-03T20:03:13.587Z,4.00
2023-02-03T20:05:40.906Z,5.43
2023-02-03T20:08:12.928Z,2.92
2023-02-03T20:10:41.077Z,4.30
2023-02-03T20:13:10.184Z,5.05
2023-02-03T20:15:37.638Z,5.07
2023-02-03T20:18:06.715Z,3.17
2023-02-03T20:20:34.508Z,2.85
2023-02-03T20:23:01.759Z,3.17
2023-02-03T20:25:28.903Z,2.10
2023-02-03T20:27:57.603Z,2.55
2023-02-03T20:30:24.699Z,2.05
2023-02-03T20:32:51.913Z,2.58
2023-02-03T20:35:19.899Z,2.33
2023-02-03T20:37:47.115Z,14.60
2023-02-03T20:40:17.285Z,9.43
2023-02-03T20:42:44.538Z,12.15
2023-02-03T20:45:16.891Z,11.68
2023-02-03T20:47:44.967Z,9.77
2023-02-03T20:50:22.482Z,6.47
2023-02-03T20:52:52.211Z,5.28
2023-02-03T20:55:23.096Z,3.38
2023-02-03T20:57:54.289Z,2.60
2023-02-03T21:00:25.411Z,2.67
2023-02-03T21:03:11.757Z,2.58
2023-02-03T21:05:45.499Z,2.20
2023-02-03T21:08:18.981Z,1.92
2023-02-03T21:10:48.192Z,1.92
2023-02-03T21:13:23.491Z,1.40
2023-02-03T21:15:52.632Z,1.65
2023-02-03T21:18:42.581Z,1.30
2023-02-03T21:21:20.137Z,1.10
2023-02-03T21:23:47.890Z,1.23
2023-02-03T21:26:26.594Z,1.42
2023-02-03T21:28:56.340Z,1.58
2023-02-03T21:31:31.917Z,1.55
2023-02-03T21:34:01.932Z,1.42
2023-02-03T21:36:35.807Z,1.05
2023-02-03T21:39:09.051Z,1.00
2023-02-03T21:41:36.487Z,1.17
2023-02-03T21:44:35.710Z,1.58
2023-02-03T21:47:12.222Z,1.95
2023-02-03T21:49:39.421Z,1.60
2023-02-03T21:52:12.857Z,1.30
2023-02-03T21:54:44.338Z,1.92
2023-02-03T21:57:15.444Z,1.50
2023-02-03T21:59:46.912Z,1.70
2023-02-03T22:02:59.929Z,1.27
2023-02-03T22:05:28.403Z,5.18
2023-02-03T22:07:55.671Z,9.85
2023-02-03T22:10:22.984Z,7.95
2023-02-03T22:12:50.136Z,11.50
2023-02-03T22:15:17.385Z,6.72
2023-02-03T22:17:48.263Z,6.68
2023-02-03T22:20:15.411Z,4.78
2023-02-03T22:22:42.493Z,2.35
2023-02-03T22:25:09.686Z,2.30
2023-02-03T22:27:36.791Z,1.92
2023-02-03T22:30:05.286Z,1.73
2023-02-03T22:32:32.402Z,1.10
2023-02-03T22:34:59.748Z,1.17
2023-02-03T22:37:26.831Z,1.35
2023-02-03T22:39:54.050Z,1.00
2023-02-03T22:42:22.411Z,1.23
2023-02-03T22:44:49.567Z,1.25
2023-02-03T22:47:16.663Z,0.85
2023-02-03T22:49:43.970Z,0.75
2023-02-03T22:52:11.118Z,0.90
2023-02-03T22:54:39.504Z,0.90
2023-02-03T22:57:06.682Z,0.75
2023-02-03T22:59:33.906Z,0.70
2023-02-03T23:02:01.290Z,1.10
2023-02-03T23:04:28.445Z,1.08
2023-02-03T23:06:55.722Z,0.85
2023-02-03T23:09:22.890Z,0.70
2023-02-03T23:11:50.087Z,0.80
2023-02-03T23:14:17.342Z,0.88
2023-02-03T23:16:44.510Z,0.85
2023-02-03T23:19:11.584Z,0.73
2023-02-03T23:21:40.117Z,0.60
2023-02-03T23:24:08.065Z,0.60
2023-02-03T23:26:35.223Z,0.50
2023-02-03T23:29:02.402Z,0.57
2023-02-03T23:31:30.010Z,0.50
2023-02-03T23:34:15.634Z,0.63
2023-02-03T23:36:45.886Z,0.60
2023-02-03T23:39:12.985Z,0.82
2023-02-03T23:41:40.142Z,1.02
2023-02-03T23:44:07.340Z,0.80
2023-02-03T23:46:34.455Z,0.73
2023-02-03T23:49:01.618Z,0.88
2023-02-03T23:51:28.697Z,0.50
2023-02-03T23:53:55.984Z,0.68
2023-02-03T23:56:23.168Z,1.00
2023-02-03T23:58:50.433Z,0.52
